createdAt,value
2023-05-01T00:02:38.458Z,89.13
2023-05-01T00:05:40.597Z,89.15
2023-05-01T00:08:42.656Z,89.23
2023-05-01T00:11:44.724Z,89.34
2023-05-01T00:14:46.806Z,89.38
2023-05-01T00:17:49.137Z,89.53
2023-05-01T00:20:51.228Z,89.68
2023-05-01T00:23:53.296Z,89.48
2023-05-01T00:26:55.348Z,89.52
2023-05-01T00:29:57.761Z,89.67
2023-05-01T00:33:01.281Z,89.39
2023-05-01T00:36:03.625Z,89.51
2023-05-01T00:39:08.152Z,89.34
2023-05-01T00:42:10.362Z,89.57
2023-05-01T00:45:12.471Z,89.50
2023-05-01T00:48:15.384Z,89.28
2023-05-01T00:51:17.356Z,89.34
2023-05-01T00:54:20.466Z,89.59
2023-05-01T00:57:22.737Z,89.48
2023-05-01T01:00:25.056Z,89.35
2023-05-01T01:03:27.834Z,89.28
2023-05-01T01:06:46.809Z,89.48
2023-05-01T01:09:51.495Z,89.57
2023-05-01T01:13:10.867Z,89.39
2023-05-01T01:16:21.864Z,88.96
2023-05-01T01:20:01.633Z,88.78
2023-05-01T01:23:11.085Z,88.76
2023-05-01T01:26:34.793Z,89.16
2023-05-01T01:30:08.936Z,89.22
2023-05-01T01:33:41.992Z,89.11
2023-05-01T01:36:56.322Z,89.28
2023-05-01T01:40:09.996Z,89.44
2023-05-01T01:43:16.854Z,89.25
2023-05-01T01:46:20.744Z,89.08
2023-05-01T01:49:26.651Z,89.06
2023-05-01T01:52:30.244Z,89.17
2023-05-01T01:55:35.257Z,89.15
2023-05-01T01:58:40.148Z,89.06
2023-05-01T02:01:44.870Z,88.88
2023-05-01T02:04:49.050Z,88.90
2023-05-01T02:07:52.918Z,89.01
2023-05-01T02:11:01.857Z,89.01
2023-05-01T02:14:06.253Z,89.13
2023-05-01T02:17:10.339Z,89.24
2023-05-01T02:20:13.806Z,89.12
2023-05-01T02:23:17.030Z,89.21
2023-05-01T02:26:23.790Z,89.12
2023-05-01T02:29:26.428Z,89.12
2023-05-01T02:32:28.749Z,89.12
2023-05-01T02:35:31.473Z,89.20
2023-05-01T02:38:33.529Z,89.17
2023-05-01T02:41:37.078Z,89.12
2023-05-01T02:44:44.070Z,89.51
2023-05-01T02:47:50.765Z,89.49
2023-05-01T02:50:54.335Z,89.47
2023-05-01T02:53:57.245Z,89.65
2023-05-01T02:56:59.785Z,89.39
2023-05-01T03:00:01.812Z,89.73
2023-05-01T03:03:04.039Z,89.73
2023-05-01T03:06:06.255Z,89.64
2023-05-01T03:09:08.292Z,89.74
2023-05-01T03:12:11.823Z,89.80
2023-05-01T03:15:13.872Z,89.63
2023-05-01T03:18:16.278Z,89.98
2023-05-01T03:21:18.384Z,90.09
2023-05-01T03:24:20.392Z,89.87
2023-05-01T03:27:22.310Z,89.81
2023-05-01T03:30:24.269Z,89.59
2023-05-01T03:33:28.063Z,89.66
2023-05-01T03:36:30.222Z,89.83
2023-05-01T03:39:32.470Z,89.56
2023-05-01T03:43:00.300Z,89.85
2023-05-01T03:46:02.449Z,89.90
2023-05-01T03:49:04.989Z,89.85
2023-05-01T03:52:12.746Z,89.83
2023-05-01T03:55:14.934Z,89.89
2023-05-01T03:58:17.951Z,89.92
2023-05-01T04:01:20.632Z,89.81
2023-05-01T04:04:23.351Z,89.89
2023-05-01T04:07:31.110Z,90.06
2023-05-01T04:10:33.244Z,90.02
2023-05-01T04:13:39.300Z,90.21
2023-05-01T04:16:41.575Z,90.58
2023-05-01T04:19:43.723Z,90.60
2023-05-01T04:22:45.852Z,90.31
2023-05-01T04:25:47.907Z,90.11
2023-05-01T04:28:52.706Z,90.60
2023-05-01T04:31:58.403Z,90.66
2023-05-01T04:35:00.572Z,90.69
2023-05-01T04:38:03.393Z,90.77
2023-05-01T04:41:06.378Z,90.86
2023-05-01T04:44:08.534Z,91.10
2023-05-01T04:47:10.636Z,91.26
2023-05-01T04:50:12.697Z,91.26
2023-05-01T04:53:15.554Z,91.23
2023-05-01T04:56:18.268Z,91.22
2023-05-01T04:59:21.892Z,91.45
2023-05-01T05:02:24.229Z,91.25
2023-05-01T05:05:26.557Z,91.33
2023-05-01T05:08:28.962Z,91.29
2023-05-01T05:11:36.576Z,91.26
2023-05-01T05:14:42.906Z,91.11
2023-05-01T05:17:45.919Z,91.32
2023-05-01T05:20:48.688Z,91.15
2023-05-01T05:23:51.154Z,91.05
2023-05-01T05:26:53.157Z,91.13
2023-05-01T05:29:55.866Z,91.02
2023-05-01T05:32:58.223Z,91.01
2023-05-01T05:36:00.590Z,91.09
2023-05-01T05:39:08.595Z,90.99
2023-05-01T05:42:10.852Z,91.04
2023-05-01T05:45:12.860Z,90.93
2023-05-01T05:48:15.226Z,90.97
2023-05-01T05:51:17.381Z,90.90
2023-05-01T05:54:19.518Z,90.91
2023-05-01T05:57:23.372Z,90.94
2023-05-01T06:00:26.246Z,90.95
2023-05-01T06:03:29.245Z,90.98
2023-05-01T06:06:35.870Z,91.13
2023-05-01T06:09:38.137Z,91.02
2023-05-01T06:12:40.565Z,91.09
2023-05-01T06:15:48.129Z,91.12
2023-05-01T06:18:51.180Z,91.05
2023-05-01T06:21:53.129Z,90.96
2023-05-01T06:24:55.781Z,90.85
2023-05-01T06:28:00.254Z,90.94
2023-05-01T06:31:02.347Z,90.81
2023-05-01T06:34:11.546Z,90.47
2023-05-01T06:37:27.217Z,89.97
2023-05-01T06:40:31.834Z,89.30
2023-05-01T06:43:33.872Z,86.66
2023-05-01T06:46:36.027Z,86.09
2023-05-01T06:49:38.113Z,84.40
2023-05-01T06:52:40.768Z,83.97
2023-05-01T06:55:42.852Z,82.17
2023-05-01T06:58:44.732Z,80.88
2023-05-01T07:01:46.907Z,79.38
2023-05-01T07:04:48.908Z,78.32
2023-05-01T07:08:00.837Z,63.31
2023-05-01T07:11:03.732Z,65.27
2023-05-01T07:14:05.756Z,68.88
2023-05-01T07:17:09.409Z,68.42
2023-05-01T07:20:12.731Z,59.01
2023-05-01T07:23:14.740Z,55.56
2023-05-01T07:26:16.985Z,54.79
2023-05-01T07:29:18.983Z,60.19
2023-05-01T07:32:21.262Z,62.11
2023-05-01T07:35:24.312Z,58.16
2023-05-01T07:38:27.195Z,60.32
2023-05-01T07:41:29.261Z,59.82
2023-05-01T07:44:31.284Z,54.68
2023-05-01T07:47:33.777Z,53.75
2023-05-01T07:50:36.026Z,57.45
2023-05-01T07:53:38.382Z,57.65
2023-05-01T07:56:40.477Z,60.37
2023-05-01T07:59:42.477Z,55.95
2023-05-01T08:02:44.760Z,53.18
2023-05-01T08:05:46.790Z,53.88
2023-05-01T08:08:48.770Z,52.15
2023-05-01T08:11:50.850Z,52.89
2023-05-01T08:14:53.420Z,52.13
2023-05-01T08:17:55.563Z,53.04
2023-05-01T08:20:57.692Z,55.89
2023-05-01T08:23:59.712Z,52.89
2023-05-01T08:27:02.741Z,54.44
2023-05-01T08:30:05.257Z,52.94
2023-05-01T08:33:07.466Z,55.87
2023-05-01T08:36:10.572Z,53.01
2023-05-01T08:39:12.700Z,52.06
2023-05-01T08:42:14.929Z,52.42
2023-05-01T08:45:19.175Z,53.89
2023-05-01T08:48:22.905Z,52.66
2023-05-01T08:51:26.800Z,51.54
2023-05-01T08:54:31.420Z,53.82
2023-05-01T08:57:34.252Z,51.76
2023-05-01T09:00:38.333Z,55.10
2023-05-01T09:03:40.964Z,53.65
2023-05-01T09:06:45.265Z,50.85
2023-05-01T09:09:47.341Z,53.85
2023-05-01T09:12:56.350Z,48.61
2023-05-01T09:15:58.435Z,51.48
2023-05-01T09:19:00.746Z,49.85
2023-05-01T09:22:03.001Z,49.29
2023-05-01T09:25:05.396Z,49.94
2023-05-01T09:28:07.819Z,47.79
2023-05-01T09:31:29.938Z,48.81
2023-05-01T09:34:32.045Z,52.22
2023-05-01T09:37:35.202Z,50.27
2023-05-01T09:40:37.236Z,47.85
2023-05-01T09:43:39.363Z,48.04
2023-05-01T09:46:44.086Z,47.01
2023-05-01T09:49:50.457Z,46.28
2023-05-01T09:52:52.863Z,47.45
2023-05-01T09:56:01.916Z,49.60
2023-05-01T09:59:18.055Z,47.25
2023-05-01T10:02:29.841Z,46.10
2023-05-01T10:05:44.591Z,48.13
2023-05-01T10:08:48.407Z,48.50
2023-05-01T10:11:55.855Z,51.62
2023-05-01T10:14:58.433Z,45.76
2023-05-01T10:18:00.745Z,46.00
2023-05-01T10:21:04.867Z,47.55
2023-05-01T10:24:08.520Z,45.62
2023-05-01T10:27:12.031Z,45.78
2023-05-01T10:30:16.726Z,46.30
2023-05-01T10:33:19.166Z,44.84
2023-05-01T10:36:43.200Z,45.84
2023-05-01T10:39:45.248Z,46.59
2023-05-01T10:43:16.301Z,44.61
2023-05-01T10:46:21.233Z,47.30
2023-05-01T10:49:23.546Z,46.46
2023-05-01T10:52:25.519Z,43.78
2023-05-01T10:55:38.643Z,45.45
2023-05-01T10:58:40.611Z,46.04
2023-05-01T11:01:45.806Z,45.44
2023-05-01T11:04:51.756Z,42.63
2023-05-01T11:08:34.395Z,44.30
2023-05-01T11:11:36.425Z,42.11
2023-05-01T11:14:53.976Z,42.41
2023-05-01T11:17:57.398Z,44.99
2023-05-01T11:20:59.788Z,44.48
2023-05-01T11:24:02.524Z,44.06
2023-05-01T11:27:05.141Z,43.57
2023-05-01T11:30:08.351Z,43.50
2023-05-01T11:33:11.233Z,44.88
2023-05-01T11:36:14.318Z,45.18
2023-05-01T11:39:17.585Z,46.12
2023-05-01T11:42:22.964Z,44.61
2023-05-01T11:45:25.474Z,43.58
2023-05-01T11:48:28.426Z,43.50
2023-05-01T11:51:32.095Z,44.42
2023-05-01T11:54:47.740Z,43.51
2023-05-01T11:57:51.876Z,44.66
2023-05-01T12:00:53.881Z,45.44
2023-05-01T12:03:56.136Z,47.54
2023-05-01T12:06:58.319Z,46.61
2023-05-01T12:10:01.270Z,46.56
2023-05-01T12:13:07.890Z,47.73
2023-05-01T12:16:10.324Z,45.81
2023-05-01T12:19:16.205Z,44.17
2023-05-01T12:22:18.780Z,42.67
2023-05-01T12:25:20.983Z,41.80
2023-05-01T12:28:23.011Z,42.42
2023-05-01T12:31:26.330Z,41.16
2023-05-01T12:34:34.382Z,43.62
2023-05-01T12:37:36.512Z,44.64
2023-05-01T12:40:40.189Z,43.24
2023-05-01T12:43:44.252Z,43.58
2023-05-01T12:46:56.449Z,42.71
2023-05-01T12:50:03.395Z,42.66
2023-05-01T12:53:06.536Z,41.53
2023-05-01T12:56:08.659Z,41.58
2023-05-01T12:59:22.562Z,42.05
2023-05-01T13:02:30.641Z,41.53
2023-05-01T13:05:32.743Z,42.90
2023-05-01T13:08:37.755Z,42.01
2023-05-01T13:11:39.880Z,41.77
2023-05-01T13:14:43.680Z,41.98
2023-05-01T13:17:46.110Z,42.16
2023-05-01T13:20:48.399Z,43.72
2023-05-01T13:23:56.103Z,42.29
2023-05-01T13:27:02.883Z,41.26
2023-05-01T13:30:07.937Z,41.86
2023-05-01T13:33:11.276Z,42.47
2023-05-01T13:36:25.085Z,41.72
2023-05-01T13:39:28.580Z,40.85
2023-05-01T13:42:30.833Z,40.49
2023-05-01T13:45:32.949Z,40.33
2023-05-01T13:48:35.020Z,40.88
2023-05-01T13:51:43.000Z,39.45
2023-05-01T13:54:47.037Z,40.77
2023-05-01T13:57:49.779Z,40.77
2023-05-01T14:00:51.921Z,41.38
2023-05-01T14:03:57.526Z,40.92
2023-05-01T14:07:01.460Z,40.43
2023-05-01T14:10:03.898Z,40.90
2023-05-01T14:13:06.580Z,42.90
2023-05-01T14:16:11.057Z,40.97
2023-05-01T14:19:16.802Z,41.63
2023-05-01T14:22:19.033Z,41.12
2023-05-01T14:25:34.747Z,42.25
2023-05-01T14:28:48.198Z,43.15
2023-05-01T14:31:50.189Z,42.08
2023-05-01T14:34:52.804Z,43.04
2023-05-01T14:37:55.515Z,44.97
2023-05-01T14:40:57.882Z,42.52
2023-05-01T14:44:01.271Z,39.69
2023-05-01T14:47:03.547Z,40.87
2023-05-01T14:50:07.076Z,40.92
2023-05-01T14:53:09.188Z,41.45
2023-05-01T14:56:12.803Z,40.17
2023-05-01T14:59:14.915Z,41.19
2023-05-01T15:02:17.298Z,42.14
2023-05-01T15:05:19.354Z,41.43
2023-05-01T15:08:21.958Z,40.87
2023-05-01T15:11:23.981Z,40.85
2023-05-01T15:14:27.435Z,41.41
2023-05-01T15:17:31.096Z,40.79
2023-05-01T15:20:34.313Z,41.42
2023-05-01T15:23:37.297Z,41.32
2023-05-01T15:26:39.284Z,41.40
2023-05-01T15:29:41.829Z,40.63
2023-05-01T15:32:44.239Z,42.67
2023-05-01T15:35:47.402Z,44.12
2023-05-01T15:38:49.414Z,42.79
2023-05-01T15:41:52.966Z,43.93
2023-05-01T15:44:54.978Z,43.08
2023-05-01T15:47:57.028Z,44.24
2023-05-01T15:50:59.088Z,45.60
2023-05-01T15:54:02.225Z,45.67
2023-05-01T15:57:04.223Z,45.52
2023-05-01T16:00:08.609Z,44.90
2023-05-01T16:03:11.874Z,45.65
2023-05-01T16:06:17.258Z,45.53
2023-05-01T16:09:20.401Z,45.98
2023-05-01T16:12:22.816Z,46.92
2023-05-01T16:15:24.872Z,46.77
2023-05-01T16:18:26.817Z,48.46
2023-05-01T16:21:29.524Z,46.17
2023-05-01T16:24:35.235Z,47.18
2023-05-01T16:27:45.947Z,46.86
2023-05-01T16:30:49.034Z,48.42
2023-05-01T16:33:53.553Z,49.77
2023-05-01T16:36:56.685Z,49.15
2023-05-01T16:40:00.304Z,50.42
2023-05-01T16:43:03.148Z,49.43
2023-05-01T16:46:05.257Z,51.66
2023-05-01T16:49:07.594Z,48.83
2023-05-01T16:52:13.658Z,50.53
2023-05-01T16:55:16.096Z,50.09
2023-05-01T16:58:18.171Z,50.38
2023-05-01T17:01:20.229Z,52.79
2023-05-01T17:04:22.742Z,52.68
2023-05-01T17:07:24.900Z,53.25
2023-05-01T17:10:26.925Z,54.29
2023-05-01T17:13:29.052Z,52.43
2023-05-01T17:16:32.573Z,53.32
2023-05-01T17:19:34.643Z,54.53
2023-05-01T17:22:37.067Z,53.79
2023-05-01T17:25:39.136Z,50.78
2023-05-01T17:28:41.463Z,52.23
2023-05-01T17:31:44.032Z,52.43
2023-05-01T17:34:46.556Z,55.37
2023-05-01T17:37:48.737Z,54.02
2023-05-01T17:40:50.995Z,53.03
2023-05-01T17:43:55.339Z,54.12
2023-05-01T17:46:57.258Z,55.19
2023-05-01T17:50:01.140Z,56.72
2023-05-01T17:53:03.683Z,58.72
2023-05-01T17:56:05.642Z,58.94
2023-05-01T17:59:07.820Z,59.25
2023-05-01T18:02:10.564Z,59.42
2023-05-01T18:05:14.673Z,60.53
2023-05-01T18:08:17.549Z,61.44
2023-05-01T18:11:19.801Z,61.48
2023-05-01T18:14:22.261Z,62.16
2023-05-01T18:17:25.403Z,61.15
2023-05-01T18:20:27.851Z,61.74
2023-05-01T18:23:30.294Z,61.58
2023-05-01T18:26:33.178Z,62.18
2023-05-01T18:29:35.559Z,62.81
2023-05-01T18:32:47.755Z,63.09
2023-05-01T18:35:51.656Z,63.36
2023-05-01T18:38:54.431Z,63.97
2023-05-01T18:41:58.031Z,64.16
2023-05-01T18:45:00.888Z,63.98
2023-05-01T18:48:05.958Z,64.76
2023-05-01T18:51:10.575Z,65.18
2023-05-01T18:54:13.213Z,65.41
2023-05-01T18:57:15.680Z,65.82
2023-05-01T19:00:20.505Z,66.36
2023-05-01T19:03:23.368Z,66.41
2023-05-01T19:06:28.293Z,66.56
2023-05-01T19:09:31.291Z,66.71
2023-05-01T19:12:33.615Z,67.34
2023-05-01T19:15:36.593Z,67.82
2023-05-01T19:18:41.105Z,68.46
2023-05-01T19:21:44.189Z,69.11
2023-05-01T19:24:47.134Z,68.82
2023-05-01T19:27:51.689Z,69.69
2023-05-01T19:30:56.809Z,69.27
2023-05-01T19:33:59.844Z,69.50
2023-05-01T19:37:03.125Z,69.46
2023-05-01T19:40:08.734Z,69.51
2023-05-01T19:43:14.420Z,69.05
2023-05-01T19:46:17.402Z,69.31
2023-05-01T19:49:22.077Z,69.46
2023-05-01T19:52:25.089Z,70.27
2023-05-01T19:55:28.625Z,70.41
2023-05-01T19:58:31.254Z,70.20
2023-05-01T20:01:33.755Z,70.53
2023-05-01T20:04:36.385Z,71.38
2023-05-01T20:07:39.160Z,71.56
2023-05-01T20:10:42.118Z,71.48
2023-05-01T20:13:45.642Z,71.23
2023-05-01T20:16:49.357Z,71.40
2023-05-01T20:19:52.689Z,72.07
2023-05-01T20:23:16.572Z,71.81
2023-05-01T20:26:19.699Z,72.34
2023-05-01T20:29:22.071Z,72.89
2023-05-01T20:32:24.116Z,73.29
2023-05-01T20:35:26.222Z,72.85
2023-05-01T20:38:28.450Z,73.73
2023-05-01T20:41:31.489Z,74.65
2023-05-01T20:44:33.852Z,74.30
2023-05-01T20:47:36.043Z,75.33
2023-05-01T20:50:38.304Z,74.47
2023-05-01T20:53:40.419Z,74.55
2023-05-01T20:56:42.424Z,74.51
2023-05-01T20:59:48.382Z,74.94
2023-05-01T21:02:52.049Z,74.71
2023-05-01T21:06:01.831Z,74.61
2023-05-01T21:09:05.429Z,74.96
2023-05-01T21:12:07.547Z,75.25
2023-05-01T21:15:11.308Z,75.53
2023-05-01T21:18:15.148Z,77.01
2023-05-01T21:21:17.349Z,77.07
2023-05-01T21:24:22.904Z,76.75
2023-05-01T21:27:26.244Z,76.74
2023-05-01T21:30:34.690Z,77.34
2023-05-01T21:33:37.754Z,77.57
2023-05-01T21:36:47.224Z,77.50
2023-05-01T21:39:50.107Z,77.94
2023-05-01T21:42:54.553Z,77.70
2023-05-01T21:45:56.805Z,77.89
2023-05-01T21:48:58.794Z,78.02
2023-05-01T21:52:01.932Z,77.97
2023-05-01T21:55:08.682Z,78.29
2023-05-01T21:58:12.496Z,78.97
2023-05-01T22:01:16.554Z,79.44
2023-05-01T22:04:19.095Z,79.53
2023-05-01T22:07:21.545Z,79.50
2023-05-01T22:10:23.606Z,79.28
2023-05-01T22:13:32.224Z,79.98
2023-05-01T22:16:34.803Z,80.93
2023-05-01T22:19:38.056Z,80.46
2023-05-01T22:22:41.736Z,80.46
2023-05-01T22:25:43.861Z,80.26
2023-05-01T22:28:46.003Z,80.21
2023-05-01T22:31:48.098Z,80.33
2023-05-01T22:34:50.209Z,80.95
2023-05-01T22:37:52.239Z,80.93
2023-05-01T22:40:54.309Z,80.68
2023-05-01T22:43:56.890Z,81.20
2023-05-01T22:47:02.191Z,81.39
2023-05-01T22:50:05.116Z,81.14
2023-05-01T22:53:07.466Z,81.08
2023-05-01T22:56:09.554Z,81.15
2023-05-01T22:59:11.750Z,81.28
2023-05-01T23:02:16.532Z,81.69
2023-05-01T23:05:18.674Z,82.00
2023-05-01T23:08:20.771Z,81.88
2023-05-01T23:11:22.962Z,81.87
2023-05-01T23:14:25.979Z,82.73
2023-05-01T23:17:35.061Z,82.84
2023-05-01T23:20:40.596Z,83.01
2023-05-01T23:23:45.768Z,82.64
2023-05-01T23:26:47.997Z,82.80
2023-05-01T23:29:58.367Z,83.08
2023-05-01T23:33:01.035Z,83.23
2023-05-01T23:36:03.211Z,83.37
2023-05-01T23:39:05.237Z,82.91
2023-05-01T23:42:07.529Z,83.19
2023-05-01T23:45:09.870Z,83.08
2023-05-01T23:48:12.332Z,83.49
2023-05-01T23:51:14.539Z,83.84
2023-05-01T23:54:16.857Z,84.28
2023-05-01T23:57:18.887Z,83.90
